createdAt,value
2023-04-18T00:00:58.400Z,8.73
2023-04-18T00:03:30.409Z,8.78
2023-04-18T00:06:01.050Z,8.81
2023-04-18T00:08:31.452Z,8.73
2023-04-18T00:11:03.398Z,8.83
2023-04-18T00:13:33.312Z,8.68
2023-04-18T00:16:02.780Z,8.69
2023-04-18T00:18:32.907Z,8.61
2023-04-18T00:21:04.629Z,8.61
2023-04-18T00:23:35.109Z,8.59
2023-04-18T00:26:05.562Z,8.71
2023-04-18T00:28:36.496Z,8.75
2023-04-18T00:31:06.265Z,8.93
2023-04-18T00:33:37.518Z,8.95
2023-04-18T00:36:10.508Z,8.98
2023-04-18T00:38:40.256Z,9.04
2023-04-18T00:41:10.384Z,9.01
2023-04-18T00:43:40.192Z,9.11
2023-04-18T00:46:09.555Z,9.18
2023-04-18T00:48:53.567Z,8.93
2023-04-18T00:51:25.872Z,8.99
2023-04-18T00:53:58.748Z,8.77
2023-04-18T00:56:29.525Z,8.90
2023-04-18T00:59:00.359Z,8.79
2023-04-18T01:01:32.595Z,8.69
2023-04-18T01:04:02.255Z,8.60
2023-04-18T01:06:34.367Z,8.58
2023-04-18T01:09:06.191Z,8.45
2023-04-18T01:11:36.533Z,8.41
2023-04-18T01:14:08.815Z,8.38
2023-04-18T01:16:39.062Z,8.20
2023-04-18T01:19:13.229Z,8.00
2023-04-18T01:21:46.132Z,7.84
2023-04-18T01:24:17.491Z,7.75
2023-04-18T01:26:49.348Z,7.64
2023-04-18T01:29:19.994Z,7.55
2023-04-18T01:31:52.332Z,7.51
2023-04-18T01:34:21.182Z,7.51
2023-04-18T01:36:51.487Z,7.51
2023-04-18T01:39:21.373Z,7.48
2023-04-18T01:41:50.360Z,7.43
2023-04-18T01:44:18.877Z,7.31
2023-04-18T01:46:48.573Z,7.21
2023-04-18T01:49:18.089Z,7.13
2023-04-18T01:51:47.677Z,7.07
2023-04-18T01:54:17.182Z,7.06
2023-04-18T01:56:47.607Z,6.99
2023-04-18T01:59:16.840Z,6.90
2023-04-18T02:01:46.392Z,6.93
2023-04-18T02:04:16.286Z,6.87
2023-04-18T02:06:48.148Z,6.96
2023-04-18T02:09:27.730Z,6.99
2023-04-18T02:11:59.868Z,6.99
2023-04-18T02:14:34.490Z,6.96
2023-04-18T02:17:03.631Z,6.93
2023-04-18T02:19:33.984Z,7.03
2023-04-18T02:22:02.499Z,7.00
2023-04-18T02:24:32.862Z,6.99
2023-04-18T02:27:03.817Z,6.99
2023-04-18T02:29:33.455Z,7.05
2023-04-18T02:32:02.371Z,6.96
2023-04-18T02:34:30.584Z,6.94
2023-04-18T02:36:59.381Z,6.98
2023-04-18T02:39:27.507Z,6.85
2023-04-18T02:41:56.114Z,6.86
2023-04-18T02:44:30.053Z,6.94
2023-04-18T02:46:58.777Z,6.85
2023-04-18T02:49:28.954Z,6.61
2023-04-18T02:51:58.798Z,6.53
2023-04-18T02:54:27.438Z,6.58
2023-04-18T02:57:10.025Z,6.47
2023-04-18T02:59:45.679Z,6.45
2023-04-18T03:02:14.051Z,6.40
2023-04-18T03:04:50.969Z,6.44
2023-04-18T03:07:19.719Z,6.32
2023-04-18T03:09:50.176Z,6.31
2023-04-18T03:12:24.032Z,6.32
2023-04-18T03:14:54.647Z,6.37
2023-04-18T03:17:22.999Z,6.53
2023-04-18T03:19:51.783Z,6.56
2023-04-18T03:22:22.626Z,6.57
2023-04-18T03:24:56.704Z,6.48
2023-04-18T03:27:40.246Z,6.46
2023-04-18T03:30:11.508Z,6.49
2023-04-18T03:32:42.990Z,6.48
2023-04-18T03:35:12.114Z,6.40
2023-04-18T03:37:40.534Z,6.38
2023-04-18T03:40:11.219Z,6.35
2023-04-18T03:42:39.391Z,6.21
2023-04-18T03:45:08.425Z,6.24
2023-04-18T03:47:40.050Z,6.24
2023-04-18T03:50:09.209Z,6.17
2023-04-18T03:52:37.505Z,6.19
2023-04-18T03:55:07.455Z,6.20
2023-04-18T03:57:35.873Z,6.12
2023-04-18T04:00:08.820Z,6.14
2023-04-18T04:02:46.138Z,6.08
2023-04-18T04:05:21.827Z,6.08
2023-04-18T04:07:51.734Z,5.99
2023-04-18T04:10:20.240Z,6.02
2023-04-18T04:12:50.092Z,5.98
2023-04-18T04:15:22.226Z,6.00
2023-04-18T04:18:13.162Z,5.98
2023-04-18T04:20:45.564Z,6.01
2023-04-18T04:23:18.689Z,5.99
2023-04-18T04:25:49.724Z,5.97
2023-04-18T04:28:46.735Z,5.81
2023-04-18T04:31:22.330Z,5.78
2023-04-18T04:33:52.872Z,5.75
2023-04-18T04:36:24.862Z,5.80
2023-04-18T04:38:54.728Z,5.72
2023-04-18T04:41:32.529Z,5.70
2023-04-18T04:44:02.044Z,5.70
2023-04-18T04:46:34.650Z,5.72
2023-04-18T04:49:09.571Z,5.78
2023-04-18T04:51:38.208Z,5.80
2023-04-18T04:54:09.451Z,5.83
2023-04-18T04:56:40.312Z,5.90
2023-04-18T04:59:09.190Z,5.93
2023-04-18T05:01:41.722Z,5.93
2023-04-18T05:04:13.531Z,5.97
2023-04-18T05:06:42.435Z,6.00
2023-04-18T05:09:10.865Z,6.01
2023-04-18T05:11:39.193Z,6.05
2023-04-18T05:14:07.175Z,6.24
2023-04-18T05:16:36.113Z,6.35
2023-04-18T05:19:04.690Z,6.52
2023-04-18T05:21:34.111Z,6.60
2023-04-18T05:24:02.401Z,6.68
2023-04-18T05:26:30.636Z,6.72
2023-04-18T05:28:59.021Z,6.82
2023-04-18T05:31:27.741Z,6.94
2023-04-18T05:33:56.113Z,7.18
2023-04-18T05:36:24.687Z,7.32
2023-04-18T05:38:54.249Z,7.37
2023-04-18T05:41:23.216Z,7.40
2023-04-18T05:44:04.321Z,7.87
2023-04-18T05:46:34.188Z,8.21
2023-04-18T05:49:03.924Z,8.09
2023-04-18T05:51:32.512Z,8.06
2023-04-18T05:54:03.397Z,8.11
2023-04-18T05:56:33.220Z,8.32
2023-04-18T05:59:09.489Z,8.18
2023-04-18T06:01:38.544Z,8.02
2023-04-18T06:04:08.837Z,8.23
2023-04-18T06:06:37.479Z,8.66
2023-04-18T06:09:07.199Z,8.88
2023-04-18T06:11:38.365Z,8.99
2023-04-18T06:14:08.444Z,8.56
2023-04-18T06:16:37.539Z,8.76
2023-04-18T06:19:06.182Z,8.41
2023-04-18T06:21:36.918Z,8.58
2023-04-18T06:24:08.056Z,8.82
2023-04-18T06:26:38.078Z,8.90
2023-04-18T06:29:06.516Z,9.09
2023-04-18T06:31:38.464Z,8.66
2023-04-18T06:34:07.919Z,8.67
2023-04-18T06:36:36.340Z,9.10
2023-04-18T06:39:05.017Z,8.95
2023-04-18T06:41:37.787Z,9.04
2023-04-18T06:44:06.569Z,8.74
2023-04-18T06:46:35.901Z,8.58
2023-04-18T06:49:04.163Z,8.56
2023-04-18T06:51:34.717Z,8.72
2023-04-18T06:54:03.450Z,9.00
2023-04-18T06:56:32.642Z,9.18
2023-04-18T06:59:04.212Z,9.07
2023-04-18T07:01:33.474Z,8.74
2023-04-18T07:04:02.682Z,9.23
2023-04-18T07:06:31.986Z,9.47
2023-04-18T07:09:02.334Z,9.26
2023-04-18T07:11:30.901Z,9.35
2023-04-18T07:13:59.391Z,9.13
2023-04-18T07:16:29.272Z,9.09
2023-04-18T07:18:58.414Z,9.17
2023-04-18T07:21:28.821Z,9.93
2023-04-18T07:23:58.187Z,9.63
2023-04-18T07:26:28.247Z,9.39
2023-04-18T07:28:57.369Z,9.75
2023-04-18T07:31:26.153Z,9.72
2023-04-18T07:33:57.170Z,9.85
2023-04-18T07:36:29.555Z,9.44
2023-04-18T07:38:58.468Z,9.29
2023-04-18T07:41:28.089Z,9.56
2023-04-18T07:43:57.513Z,10.18
2023-04-18T07:46:27.615Z,9.89
2023-04-18T07:48:58.254Z,10.09
2023-04-18T07:51:31.653Z,10.36
2023-04-18T07:54:00.997Z,10.03
2023-04-18T07:56:29.742Z,10.12
2023-04-18T07:58:58.756Z,9.98
2023-04-18T08:01:27.717Z,9.80
2023-04-18T08:04:02.232Z,10.19
2023-04-18T08:06:31.518Z,10.04
2023-04-18T08:09:05.210Z,10.04
2023-04-18T08:11:34.032Z,10.49
2023-04-18T08:14:05.208Z,11.09
2023-04-18T08:16:34.611Z,11.06
2023-04-18T08:19:04.865Z,11.03
2023-04-18T08:21:33.649Z,10.68
2023-04-18T08:24:01.907Z,11.00
2023-04-18T08:26:33.031Z,11.16
2023-04-18T08:29:01.762Z,11.05
2023-04-18T08:31:32.130Z,11.18
2023-04-18T08:34:13.907Z,11.07
2023-04-18T08:36:43.189Z,11.25
2023-04-18T08:39:12.154Z,11.52
2023-04-18T08:41:44.014Z,12.08
2023-04-18T08:44:13.509Z,12.65
2023-04-18T08:46:43.081Z,12.17
2023-04-18T08:49:13.819Z,12.36
2023-04-18T08:51:43.784Z,12.49
2023-04-18T08:54:13.596Z,12.79
2023-04-18T08:56:42.415Z,13.36
2023-04-18T08:59:13.042Z,13.11
2023-04-18T09:01:51.716Z,12.51
2023-04-18T09:04:50.359Z,12.74
2023-04-18T09:07:20.174Z,12.74
2023-04-18T09:09:51.020Z,13.12
2023-04-18T09:12:23.019Z,13.47
2023-04-18T09:14:54.524Z,13.58
2023-04-18T09:17:33.220Z,14.11
2023-04-18T09:20:06.857Z,14.38
2023-04-18T09:22:48.313Z,14.28
2023-04-18T09:25:29.380Z,14.78
2023-04-18T09:28:01.415Z,15.49
2023-04-18T09:30:38.215Z,13.83
2023-04-18T09:33:07.983Z,15.05
2023-04-18T09:35:39.120Z,14.76
2023-04-18T09:38:08.322Z,13.79
2023-04-18T09:40:38.948Z,13.88
2023-04-18T09:43:21.237Z,14.86
2023-04-18T09:45:50.001Z,13.99
2023-04-18T09:48:18.640Z,14.13
2023-04-18T09:50:50.828Z,14.03
2023-04-18T09:53:21.136Z,13.59
2023-04-18T09:55:51.490Z,14.05
2023-04-18T09:58:23.095Z,13.63
2023-04-18T10:00:51.647Z,13.44
2023-04-18T10:03:21.356Z,13.09
2023-04-18T10:05:52.637Z,13.79
2023-04-18T10:08:22.225Z,13.66
2023-04-18T10:10:51.359Z,14.01
2023-04-18T10:13:20.832Z,14.79
2023-04-18T10:15:50.968Z,15.59
2023-04-18T10:18:23.576Z,15.81
2023-04-18T10:21:02.550Z,16.07
2023-04-18T10:24:00.689Z,17.23
2023-04-18T10:26:47.465Z,17.07
2023-04-18T10:29:15.838Z,17.58
2023-04-18T10:31:48.125Z,16.53
2023-04-18T10:34:19.910Z,17.62
2023-04-18T10:37:11.582Z,16.85
2023-04-18T10:39:50.376Z,17.61
2023-04-18T10:42:19.084Z,18.17
2023-04-18T10:45:05.584Z,18.83
2023-04-18T10:47:34.564Z,19.08
2023-04-18T10:50:06.826Z,18.22
2023-04-18T10:52:38.437Z,21.10
2023-04-18T10:55:12.251Z,21.40
2023-04-18T10:57:42.289Z,20.04
2023-04-18T11:00:13.706Z,17.98
2023-04-18T11:02:42.985Z,18.67
2023-04-18T11:05:12.163Z,18.61
2023-04-18T11:07:45.186Z,18.40
2023-04-18T11:10:14.495Z,18.07
2023-04-18T11:12:46.253Z,19.73
2023-04-18T11:15:17.815Z,18.60
2023-04-18T11:17:47.431Z,17.26
2023-04-18T11:20:16.389Z,17.27
2023-04-18T11:22:51.959Z,18.40
2023-04-18T11:25:22.465Z,17.16
2023-04-18T11:27:55.917Z,17.37
2023-04-18T11:30:24.604Z,20.30
2023-04-18T11:32:54.425Z,21.93
2023-04-18T11:35:22.883Z,20.97
2023-04-18T11:37:52.534Z,23.20
2023-04-18T11:40:20.961Z,21.83
2023-04-18T11:42:50.950Z,20.26
2023-04-18T11:45:19.170Z,20.73
2023-04-18T11:47:47.890Z,19.06
2023-04-18T11:50:16.416Z,18.57
2023-04-18T11:52:44.897Z,17.14
2023-04-18T11:55:17.964Z,17.45
2023-04-18T11:58:07.575Z,17.09
2023-04-18T12:00:37.367Z,16.65
2023-04-18T12:03:13.389Z,16.93
2023-04-18T12:05:43.070Z,16.80
2023-04-18T12:08:13.369Z,17.56
2023-04-18T12:10:48.665Z,18.11
2023-04-18T12:13:17.320Z,18.51
2023-04-18T12:15:47.309Z,19.23
2023-04-18T12:18:16.839Z,18.38
2023-04-18T12:20:50.523Z,18.83
2023-04-18T12:23:36.456Z,20.38
2023-04-18T12:26:07.560Z,20.95
2023-04-18T12:28:37.064Z,19.74
2023-04-18T12:31:07.946Z,18.67
2023-04-18T12:33:37.231Z,18.69
2023-04-18T12:36:09.541Z,18.56
2023-04-18T12:38:38.204Z,17.81
2023-04-18T12:41:08.449Z,17.39
2023-04-18T12:43:37.016Z,17.52
2023-04-18T12:46:05.073Z,17.55
2023-04-18T12:48:33.496Z,17.33
2023-04-18T12:51:02.293Z,17.13
2023-04-18T12:53:30.927Z,16.75
2023-04-18T12:56:01.550Z,16.76
2023-04-18T12:58:31.206Z,17.13
2023-04-18T13:00:59.946Z,18.02
2023-04-18T13:03:28.791Z,18.36
2023-04-18T13:05:57.789Z,18.93
2023-04-18T13:08:27.058Z,19.02
2023-04-18T13:10:56.385Z,19.86
2023-04-18T13:13:24.574Z,19.82
2023-04-18T13:15:54.451Z,19.00
2023-04-18T13:18:26.520Z,18.43
2023-04-18T13:20:55.045Z,17.65
2023-04-18T13:23:24.274Z,17.54
2023-04-18T13:25:56.411Z,18.13
2023-04-18T13:31:11.313Z,18.83
2023-04-18T13:33:41.293Z,18.99
2023-04-18T13:36:10.030Z,19.21
2023-04-18T13:38:41.719Z,19.12
2023-04-18T13:41:13.390Z,18.82
2023-04-18T13:43:42.341Z,19.14
2023-04-18T13:46:14.400Z,19.40
2023-04-18T13:48:58.259Z,19.57
2023-04-18T13:51:27.018Z,20.35
2023-04-18T13:53:56.310Z,21.04
2023-04-18T13:56:25.154Z,20.61
2023-04-18T13:58:56.140Z,19.90
2023-04-18T14:01:26.913Z,20.63
2023-04-18T14:04:10.097Z,23.32
2023-04-18T14:06:39.001Z,24.50
2023-04-18T14:09:11.498Z,23.14
2023-04-18T14:11:40.825Z,23.46
2023-04-18T14:14:23.210Z,21.88
2023-04-18T14:16:55.188Z,20.44
2023-04-18T14:19:28.126Z,22.23
2023-04-18T14:21:56.422Z,21.75
2023-04-18T14:24:31.985Z,23.02
2023-04-18T14:27:02.106Z,21.13
2023-04-18T14:29:31.411Z,18.58
2023-04-18T14:32:08.150Z,17.97
2023-04-18T14:34:38.208Z,17.47
2023-04-18T14:37:08.136Z,17.14
2023-04-18T14:39:38.688Z,16.86
2023-04-18T14:42:07.670Z,16.90
2023-04-18T14:44:37.212Z,16.80
2023-04-18T14:47:07.276Z,16.82
2023-04-18T14:49:36.345Z,16.94
2023-04-18T14:52:05.126Z,17.00
2023-04-18T14:54:34.402Z,17.00
2023-04-18T14:57:03.214Z,17.09
2023-04-18T14:59:32.285Z,17.17
2023-04-18T15:02:00.712Z,17.27
2023-04-18T15:04:34.231Z,17.27
2023-04-18T15:07:03.337Z,17.37
2023-04-18T15:09:31.606Z,17.61
2023-04-18T15:12:00.481Z,17.21
2023-04-18T15:14:28.365Z,17.08
2023-04-18T15:17:02.025Z,19.09
2023-04-18T15:19:39.179Z,19.97
2023-04-18T15:22:09.892Z,21.90
2023-04-18T15:24:38.210Z,21.48
2023-04-18T15:27:11.927Z,21.00
2023-04-18T15:29:40.271Z,21.79
2023-04-18T15:32:10.115Z,23.61
2023-04-18T15:34:40.095Z,23.03
2023-04-18T15:37:08.798Z,21.31
2023-04-18T15:39:37.573Z,19.63
2023-04-18T15:42:06.127Z,19.07
2023-04-18T15:44:36.904Z,18.25
2023-04-18T15:47:06.312Z,17.74
2023-04-18T15:49:34.181Z,17.18
2023-04-18T15:54:53.335Z,16.90
2023-04-18T15:57:25.328Z,16.89
2023-04-18T15:59:56.934Z,17.52
2023-04-18T16:02:48.594Z,17.59
2023-04-18T16:05:17.666Z,16.84
2023-04-18T16:07:50.302Z,16.60
2023-04-18T16:10:48.451Z,16.20
2023-04-18T16:13:21.312Z,16.08
2023-04-18T16:15:54.680Z,16.07
2023-04-18T16:18:28.568Z,16.11
2023-04-18T16:20:59.459Z,16.19
2023-04-18T16:23:32.862Z,16.21
2023-04-18T16:28:51.649Z,16.13
2023-04-18T16:31:21.103Z,16.10
2023-04-18T16:33:52.740Z,16.44
2023-04-18T16:36:23.606Z,16.39
2023-04-18T16:39:03.134Z,16.38
2023-04-18T16:44:20.740Z,16.01
2023-04-18T16:46:58.988Z,15.93
2023-04-18T16:49:28.028Z,15.86
2023-04-18T16:52:09.863Z,15.55
2023-04-18T16:54:42.164Z,15.34
2023-04-18T17:02:47.517Z,15.47
2023-04-18T17:05:20.737Z,15.38
2023-04-18T17:07:55.525Z,15.17
2023-04-18T17:10:28.139Z,15.08
2023-04-18T17:12:57.425Z,14.94
2023-04-18T17:15:28.395Z,15.03
2023-04-18T17:18:00.400Z,14.98
2023-04-18T17:20:28.914Z,14.60
2023-04-18T17:22:57.785Z,14.58
2023-04-18T17:25:34.130Z,14.59
2023-04-18T17:28:06.750Z,14.43
2023-04-18T17:30:35.236Z,14.30
2023-04-18T17:33:06.733Z,14.27
2023-04-18T17:35:37.447Z,14.28
2023-04-18T17:38:06.955Z,13.97
2023-04-18T17:40:37.203Z,14.04
2023-04-18T17:43:07.502Z,13.95
2023-04-18T17:45:38.965Z,13.98
2023-04-18T17:48:24.303Z,13.87
2023-04-18T17:50:56.094Z,13.79
2023-04-18T17:53:25.570Z,13.62
2023-04-18T17:56:04.305Z,13.53
2023-04-18T17:58:35.544Z,13.64
2023-04-18T18:01:06.340Z,13.53
2023-04-18T18:03:35.487Z,13.46
2023-04-18T18:06:05.760Z,13.44
2023-04-18T18:08:36.459Z,13.33
2023-04-18T18:11:08.939Z,13.31
2023-04-18T18:13:50.266Z,13.22
2023-04-18T18:16:21.396Z,13.20
2023-04-18T18:18:51.127Z,13.13
2023-04-18T18:21:19.890Z,13.16
2023-04-18T18:23:50.302Z,13.08
2023-04-18T18:26:26.790Z,12.92
2023-04-18T18:28:56.175Z,12.86
2023-04-18T18:31:26.016Z,12.83
2023-04-18T18:33:58.982Z,12.92
2023-04-18T18:36:28.781Z,12.98
2023-04-18T18:38:57.470Z,12.82
2023-04-18T18:41:34.330Z,12.75
2023-04-18T18:44:04.814Z,12.75
2023-04-18T18:46:38.909Z,12.81
2023-04-18T18:49:09.710Z,12.82
2023-04-18T18:54:45.589Z,12.73
2023-04-18T18:57:16.383Z,12.74
2023-04-18T18:59:44.806Z,12.65
2023-04-18T19:02:21.792Z,12.68
2023-04-18T19:04:58.088Z,12.58
2023-04-18T19:07:30.117Z,12.68
2023-04-18T19:10:01.205Z,12.59
2023-04-18T19:12:52.243Z,12.61
2023-04-18T19:18:11.325Z,12.59
2023-04-18T19:20:44.117Z,12.63
2023-04-18T19:23:17.392Z,12.64
2023-04-18T19:25:48.049Z,12.67
2023-04-18T19:28:18.986Z,12.64
2023-04-18T19:30:50.546Z,12.64
2023-04-18T19:33:24.913Z,12.67
2023-04-18T19:35:56.658Z,12.77
2023-04-18T19:41:43.477Z,12.65
2023-04-18T19:50:39.806Z,12.78
2023-04-18T19:53:09.187Z,12.66
2023-04-18T19:55:52.306Z,12.56
2023-04-18T19:58:45.339Z,12.54
2023-04-18T20:01:19.553Z,12.56
2023-04-18T20:07:38.770Z,12.65
2023-04-18T20:13:15.807Z,12.61
2023-04-18T20:15:46.936Z,12.75
2023-04-18T20:18:37.976Z,12.73
2023-04-18T20:21:12.712Z,12.67
2023-04-18T20:23:48.644Z,12.64
2023-04-18T20:29:21.795Z,12.39
2023-04-18T20:31:56.563Z,12.46
2023-04-18T20:34:40.887Z,12.49
2023-04-18T20:37:11.918Z,12.48
2023-04-18T20:39:59.160Z,12.44
2023-04-18T20:42:41.814Z,12.42
2023-04-18T20:45:22.398Z,12.38
2023-04-18T20:47:57.695Z,12.41
2023-04-18T20:50:31.954Z,12.43
2023-04-18T20:53:02.756Z,12.49
2023-04-18T20:55:36.565Z,12.43
2023-04-18T20:58:07.370Z,12.50
2023-04-18T21:00:36.873Z,12.44
2023-04-18T21:03:10.590Z,12.41
2023-04-18T21:08:39.530Z,12.33
2023-04-18T21:11:09.005Z,12.45
2023-04-18T21:13:38.647Z,12.55
2023-04-18T21:16:10.285Z,12.49
2023-04-18T21:18:38.646Z,12.52
2023-04-18T21:21:07.461Z,12.44
2023-04-18T21:23:41.833Z,12.33
2023-04-18T21:26:13.065Z,12.14
2023-04-18T21:28:54.624Z,12.16
2023-04-18T21:31:23.084Z,11.98
2023-04-18T21:33:52.870Z,11.93
2023-04-18T21:36:21.128Z,12.01
2023-04-18T21:38:49.464Z,12.21
2023-04-18T21:41:18.933Z,12.12
2023-04-18T21:43:47.218Z,12.40
2023-04-18T21:46:16.104Z,12.27
2023-04-18T21:48:45.089Z,12.21
2023-04-18T21:51:15.284Z,12.10
2023-04-18T21:53:43.698Z,12.13
2023-04-18T21:56:11.886Z,12.05
2023-04-18T21:58:42.521Z,12.15
2023-04-18T22:01:10.574Z,12.15
2023-04-18T22:03:38.690Z,12.14
2023-04-18T22:06:06.741Z,12.10
2023-04-18T22:08:34.795Z,12.09
2023-04-18T22:11:02.916Z,12.19
2023-04-18T22:13:33.089Z,12.32
2023-04-18T22:16:03.686Z,12.27
2023-04-18T22:18:33.666Z,12.11
2023-04-18T22:21:03.639Z,12.00
2023-04-18T22:23:32.200Z,11.97
2023-04-18T22:26:00.147Z,12.04
2023-04-18T22:28:29.165Z,12.09
2023-04-18T22:30:57.912Z,12.01
2023-04-18T22:33:27.739Z,12.06
2023-04-18T22:35:56.016Z,12.14
2023-04-18T22:38:24.476Z,12.16
2023-04-18T22:40:52.608Z,12.10
2023-04-18T22:43:23.797Z,12.05
2023-04-18T22:45:52.461Z,11.88
2023-04-18T22:48:20.628Z,11.92
2023-04-18T22:50:51.035Z,11.96
2023-04-18T22:53:19.083Z,11.92
2023-04-18T22:55:47.481Z,11.96
2023-04-18T22:58:16.109Z,11.92
2023-04-18T23:00:44.147Z,11.87
2023-04-18T23:03:12.486Z,11.80
2023-04-18T23:05:41.567Z,11.77
2023-04-18T23:08:12.432Z,11.73
2023-04-18T23:10:41.016Z,11.73
2023-04-18T23:13:08.790Z,11.88
2023-04-18T23:15:37.405Z,11.97
2023-04-18T23:18:05.951Z,12.19
2023-04-18T23:20:34.474Z,12.24
2023-04-18T23:23:02.790Z,12.23
2023-04-18T23:25:35.009Z,12.19
2023-04-18T23:28:03.547Z,12.25
2023-04-18T23:30:32.019Z,12.31
2023-04-18T23:33:00.371Z,12.15
2023-04-18T23:35:28.593Z,12.25
2023-04-18T23:37:57.330Z,12.10
2023-04-18T23:40:25.924Z,12.26
2023-04-18T23:42:55.870Z,11.99
2023-04-18T23:45:25.765Z,12.07
2023-04-18T23:47:54.272Z,11.95
2023-04-18T23:50:22.411Z,12.12
2023-04-18T23:52:51.065Z,12.19
2023-04-18T23:55:19.673Z,12.08
2023-04-18T23:57:48.184Z,12.01
